Tan-shui, Taiwan
Current Conditions -  °F | °C
As of 2:00 AM on Wednesday 22 Oct 2014 (Local Time) from RCSS Reporting Station
Few Clouds Few Clouds  
Wind Chill: 77°   Ceiling: Unl
Heat Index: 79°   Visibility: 6mi
Dew Point: 68°   Wind: 2mph
Humidity: 74%   Direction: NA
Pressure: 29.94"   Gusts: NA
Location:  25.17°N, 121.43°E
Report Text: RCSS 211800Z VRB02KT 9999 FEW030 25/20 Q1014 NOSIG RMK A2996
Loading
Personal Weather Stations






























Interactive Weather Map
Tropical Storm Tracking
New forecast layout! Learn more

10-Day Weather Forecast

Advertisements
Track Severe Weather on mobile